Main page
METAR-TAF:

METAR-TAF

Airports :

Athens International Airport

Athens, Greece

latitude: 37-56N, longitude: 023-56E, elevation: 94 m

Current weather observation

The report was made 34 minutes ago, at 05:20 UTC
Wind 2 kt from the West/Southwest
Temperature 19°C
Humidity 46%
Pressure 1015 hPa
Visibility 10 km or more
no clouds below 1500 m and no cumulonimbus

METAR: LGAV 240520Z 24002KT CAVOK 19/07 Q1015 NOSIG

Time: 08:54 (05:54 UTC)

Forecast

The report was made 54 minutes ago, at 05:00 UTC
Forecast valid from 24 at 06 UTC to 25 at 06 UTC
Wind 5 kt from variable directions
Visibility 10 km or more
Few clouds at a height of 2500 ft
Becoming
from 24 at 07 UTC to 24 at 09 UTC
Wind 14 kt from the Southeast
Becoming
from 24 at 18 UTC to 24 at 20 UTC
Wind 3 kt from variable directions

TAF: LGAV 240500Z 2406/2506 VRB05KT 9999 FEW025 BECMG 2407/2409 14014KT BECMG 2418/2420 VRB03KT

Weather observations and forecasts of more than 4000 airports (METAR and TAF reports).

The available stations are represented by yellow and red dots on the map.

Hover mouse over dot to see the name of the station.

Then click to see weather observations and forecasts.

To change the map : click on the green buttons with a black cross to zoom in, on the green button with a dash to zoom out, or on the green arrows for adjacent maps.


METAR-TAF: